» Metar & Tafor

24 November 2019
METAR
Pukul : 07.00 UTC
Isi :

METAR WAGI 090700Z 32005KT 8000 FEW011CB SCT012 30/24 Q1008 RMK CB TO RW13 & N=


10 Juni 2019
TAFOR
Pukul :
Isi :

TAF WAGI 090500Z 0906/0918 27003KT 9999 SCT012 TEMPO 0907/0911 5000 TS FEW010CB BKN011=


Hal: << First | < Prev | 1 | Next > | Last >>